createdAt,value
2023-05-21T00:01:08.166Z,71.83
2023-05-21T00:03:36.455Z,71.45
2023-05-21T00:06:04.021Z,73.08
2023-05-21T00:08:31.192Z,72.84
2023-05-21T00:10:58.038Z,73.56
2023-05-21T00:13:24.791Z,73.32
2023-05-21T00:15:51.593Z,72.49
2023-05-21T00:18:18.468Z,71.16
2023-05-21T00:20:45.851Z,71.37
2023-05-21T00:23:12.583Z,70.95
2023-05-21T00:25:39.320Z,69.41
2023-05-21T00:28:06.004Z,68.90
2023-05-21T00:30:32.754Z,68.50
2023-05-21T00:33:02.505Z,69.30
2023-05-21T00:35:29.559Z,69.82
2023-05-21T00:37:56.462Z,72.63
2023-05-21T00:40:23.283Z,72.77
2023-05-21T00:42:50.000Z,72.56
2023-05-21T00:45:16.764Z,72.37
2023-05-21T00:47:44.071Z,71.54
2023-05-21T00:50:12.135Z,70.92
2023-05-21T00:52:42.034Z,70.08
2023-05-21T00:55:09.878Z,69.07
2023-05-21T00:57:37.408Z,68.63
2023-05-21T01:00:08.168Z,67.64
2023-05-21T01:02:38.416Z,67.82
2023-05-21T01:05:06.195Z,67.13
2023-05-21T01:07:39.923Z,67.37
2023-05-21T01:10:08.621Z,66.81
2023-05-21T01:12:36.334Z,66.92
2023-05-21T01:15:04.198Z,67.70
2023-05-21T01:17:31.894Z,69.19
2023-05-21T01:19:59.509Z,68.94
2023-05-21T01:22:28.591Z,68.59
2023-05-21T01:24:55.682Z,69.32
2023-05-21T01:27:22.953Z,68.84
2023-05-21T01:29:49.739Z,68.94
2023-05-21T01:32:38.636Z,68.60
2023-05-21T01:35:11.410Z,69.09
2023-05-21T01:38:02.365Z,69.41
2023-05-21T01:40:47.491Z,70.21
2023-05-21T01:43:15.493Z,68.69
2023-05-21T01:45:44.144Z,68.76
2023-05-21T01:48:12.977Z,69.16
2023-05-21T01:50:41.712Z,69.11
2023-05-21T01:53:08.431Z,68.33
2023-05-21T01:55:36.144Z,67.79
2023-05-21T01:58:03.155Z,67.58
2023-05-21T02:00:30.917Z,67.61
2023-05-21T02:02:58.838Z,66.81
2023-05-21T02:05:25.880Z,67.04
2023-05-21T02:07:52.862Z,66.31
2023-05-21T02:10:19.660Z,66.29
2023-05-21T02:12:46.564Z,66.38
2023-05-21T02:15:18.187Z,67.06
2023-05-21T02:17:46.403Z,67.50
2023-05-21T02:20:13.921Z,67.00
2023-05-21T02:22:45.972Z,67.47
2023-05-21T02:25:15.945Z,68.62
2023-05-21T02:27:43.390Z,69.56
2023-05-21T02:30:12.229Z,67.93
2023-05-21T02:32:42.655Z,67.16
2023-05-21T02:35:11.467Z,67.19
2023-05-21T02:37:40.344Z,69.16
2023-05-21T02:40:08.182Z,69.29
2023-05-21T02:42:36.641Z,69.68
2023-05-21T02:45:03.747Z,70.32
2023-05-21T02:47:30.473Z,70.96
2023-05-21T02:49:59.916Z,70.09
2023-05-21T02:52:26.735Z,69.14
2023-05-21T02:54:53.719Z,69.39
2023-05-21T02:57:20.598Z,69.92
2023-05-21T02:59:47.298Z,72.21
2023-05-21T03:02:13.951Z,71.60
2023-05-21T03:04:46.138Z,71.65
2023-05-21T03:07:14.526Z,70.61
2023-05-21T03:09:42.427Z,69.44
2023-05-21T03:12:11.080Z,69.36
2023-05-21T03:14:38.347Z,68.86
2023-05-21T03:17:06.367Z,68.78
2023-05-21T03:19:36.817Z,68.92
2023-05-21T03:22:04.718Z,68.82
2023-05-21T03:24:31.855Z,67.80
2023-05-21T03:27:03.349Z,68.42
2023-05-21T03:29:30.081Z,69.34
2023-05-21T03:31:57.765Z,70.25
2023-05-21T03:34:24.602Z,70.61
2023-05-21T03:36:51.410Z,71.56
2023-05-21T03:39:18.182Z,72.51
2023-05-21T03:41:45.185Z,72.54
2023-05-21T03:44:12.029Z,72.30
2023-05-21T03:46:38.834Z,72.76
2023-05-21T03:49:06.002Z,73.86
2023-05-21T03:51:32.651Z,72.06
2023-05-21T03:53:59.940Z,71.38
2023-05-21T03:56:27.001Z,71.72
2023-05-21T03:58:53.851Z,71.39
2023-05-21T04:01:20.639Z,73.36
2023-05-21T04:03:47.590Z,74.31
2023-05-21T04:06:15.629Z,73.31
2023-05-21T04:08:42.744Z,72.96
2023-05-21T04:11:09.533Z,71.41
2023-05-21T04:13:36.366Z,71.52
2023-05-21T04:16:03.150Z,71.53
2023-05-21T04:18:29.934Z,71.92
2023-05-21T04:20:56.728Z,73.37
2023-05-21T04:23:23.747Z,72.40
2023-05-21T04:25:51.151Z,71.82
2023-05-21T04:28:21.181Z,73.05
2023-05-21T04:30:48.407Z,74.75
2023-05-21T04:33:18.427Z,74.11
2023-05-21T04:35:50.244Z,73.54
2023-05-21T04:38:19.616Z,74.17
2023-05-21T04:40:50.787Z,72.64
2023-05-21T04:43:17.494Z,73.92
2023-05-21T04:45:45.222Z,72.54
2023-05-21T04:48:12.729Z,72.29
2023-05-21T04:50:41.700Z,72.26
2023-05-21T04:53:08.858Z,71.93
2023-05-21T04:55:40.037Z,71.51
2023-05-21T04:58:11.278Z,71.53
2023-05-21T05:00:42.309Z,70.61
2023-05-21T05:03:09.223Z,72.39
2023-05-21T05:05:36.317Z,73.13
2023-05-21T05:08:04.155Z,71.83
2023-05-21T05:10:30.839Z,70.19
2023-05-21T05:12:57.543Z,72.91
2023-05-21T05:15:24.204Z,73.17
2023-05-21T05:17:50.969Z,71.87
2023-05-21T05:20:17.869Z,72.33
2023-05-21T05:22:44.484Z,71.67
2023-05-21T05:25:11.162Z,71.41
2023-05-21T05:27:38.613Z,72.36
2023-05-21T05:30:06.150Z,72.79
2023-05-21T05:32:32.840Z,71.07
2023-05-21T05:35:01.611Z,69.60
2023-05-21T05:37:29.141Z,69.29
2023-05-21T05:39:58.160Z,67.73
2023-05-21T05:42:24.947Z,68.97
2023-05-21T05:44:51.584Z,69.38
2023-05-21T05:47:18.244Z,70.95
2023-05-21T05:49:45.793Z,70.54
2023-05-21T05:52:12.705Z,69.52
2023-05-21T05:54:39.379Z,70.61
2023-05-21T05:57:06.342Z,68.00
2023-05-21T05:59:33.954Z,69.00
2023-05-21T06:02:01.852Z,68.40
2023-05-21T06:04:30.285Z,66.88
2023-05-21T06:07:00.983Z,67.53
2023-05-21T06:09:27.655Z,67.96
2023-05-21T06:11:54.411Z,68.02
2023-05-21T06:14:21.123Z,67.32
2023-05-21T06:16:47.855Z,68.35
2023-05-21T06:19:14.720Z,68.31
2023-05-21T06:21:41.429Z,66.46
2023-05-21T06:24:08.106Z,66.07
2023-05-21T06:26:34.748Z,65.65
2023-05-21T06:29:01.443Z,63.05
2023-05-21T06:31:28.830Z,62.86
2023-05-21T06:33:55.656Z,60.56
2023-05-21T06:36:22.400Z,56.65
2023-05-21T06:38:49.186Z,54.59
2023-05-21T06:41:15.952Z,54.46
2023-05-21T06:43:42.618Z,53.98
2023-05-21T06:46:09.450Z,52.35
2023-05-21T06:48:36.203Z,51.83
2023-05-21T06:51:02.879Z,52.55
2023-05-21T06:53:29.653Z,52.41
2023-05-21T06:55:56.295Z,52.79
2023-05-21T06:58:23.081Z,54.84
2023-05-21T07:00:49.859Z,54.60
2023-05-21T07:03:17.344Z,55.91
2023-05-21T07:05:44.246Z,55.29
2023-05-21T07:08:12.187Z,54.86
2023-05-21T07:10:39.016Z,54.74
2023-05-21T07:13:06.063Z,57.50
2023-05-21T07:15:32.706Z,54.69
2023-05-21T07:17:59.423Z,54.55
2023-05-21T07:20:26.155Z,52.33
2023-05-21T07:22:52.839Z,50.74
2023-05-21T07:25:19.654Z,52.62
2023-05-21T07:27:46.512Z,53.28
2023-05-21T07:30:14.713Z,52.67
2023-05-21T07:32:41.553Z,52.97
2023-05-21T07:35:08.594Z,52.46
2023-05-21T07:37:35.341Z,48.19
2023-05-21T07:40:02.260Z,46.96
2023-05-21T07:42:28.896Z,47.14
2023-05-21T07:44:55.565Z,46.75
2023-05-21T07:47:23.555Z,46.91
2023-05-21T07:49:50.337Z,46.93
2023-05-21T07:52:17.095Z,47.84
2023-05-21T07:54:43.858Z,47.79
2023-05-21T07:57:10.552Z,47.01
2023-05-21T07:59:37.272Z,46.18
2023-05-21T08:02:03.972Z,46.70
2023-05-21T08:04:30.944Z,45.84
2023-05-21T08:06:57.715Z,45.20
2023-05-21T08:09:24.399Z,45.25
2023-05-21T08:11:51.095Z,44.66
2023-05-21T08:14:17.873Z,45.98
2023-05-21T08:16:45.241Z,43.82
2023-05-21T08:19:11.978Z,43.91
2023-05-21T08:21:38.657Z,42.35
2023-05-21T08:24:07.266Z,42.16
2023-05-21T08:26:33.950Z,40.56
2023-05-21T08:29:03.334Z,40.08
2023-05-21T08:31:30.983Z,40.96
2023-05-21T08:33:57.774Z,40.50
2023-05-21T08:36:25.107Z,39.33
2023-05-21T08:38:52.978Z,39.37
2023-05-21T08:41:23.134Z,39.37
2023-05-21T08:43:56.631Z,37.99
2023-05-21T08:46:25.103Z,37.76
2023-05-21T08:48:55.145Z,37.14
2023-05-21T08:51:22.416Z,37.37
2023-05-21T08:53:51.512Z,37.34
2023-05-21T08:56:18.484Z,38.23
2023-05-21T08:58:49.078Z,38.46
2023-05-21T09:01:19.261Z,38.56
2023-05-21T09:03:47.220Z,39.09
2023-05-21T09:06:14.291Z,38.56
2023-05-21T09:08:45.998Z,38.90
2023-05-21T09:11:14.096Z,39.34
2023-05-21T09:13:41.773Z,39.49
2023-05-21T09:16:10.219Z,40.70
2023-05-21T09:18:36.877Z,41.32
2023-05-21T09:21:29.932Z,40.54
2023-05-21T09:23:58.068Z,41.65
2023-05-21T09:26:25.856Z,41.87
2023-05-21T09:28:57.662Z,41.24
2023-05-21T09:31:25.924Z,41.57
2023-05-21T09:33:53.379Z,39.95
2023-05-21T09:36:20.457Z,39.74
2023-05-21T09:38:52.166Z,39.66
2023-05-21T09:41:21.903Z,37.65
2023-05-21T09:43:49.310Z,36.88
2023-05-21T09:46:16.162Z,36.78
2023-05-21T09:48:43.484Z,35.80
2023-05-21T09:51:16.176Z,34.61
2023-05-21T09:53:54.354Z,34.60
2023-05-21T09:56:25.259Z,34.00
2023-05-21T09:58:56.883Z,34.21
2023-05-21T10:01:27.379Z,34.46
2023-05-21T10:03:58.973Z,33.87
2023-05-21T10:06:31.184Z,34.44
2023-05-21T10:09:10.731Z,34.09
2023-05-21T10:11:37.969Z,35.41
2023-05-21T10:14:04.825Z,34.63
2023-05-21T10:16:34.184Z,34.75
2023-05-21T10:19:01.022Z,34.94
2023-05-21T10:21:28.114Z,35.09
2023-05-21T10:23:57.450Z,33.76
2023-05-21T10:26:25.105Z,34.28
2023-05-21T10:28:52.252Z,34.04
2023-05-21T10:31:19.960Z,34.68
2023-05-21T10:33:47.305Z,34.26
2023-05-21T10:36:17.378Z,34.93
2023-05-21T10:38:44.797Z,34.88
2023-05-21T10:41:13.750Z,34.64
2023-05-21T10:44:05.335Z,33.50
2023-05-21T10:46:58.385Z,33.98
2023-05-21T10:49:36.834Z,32.88
2023-05-21T10:52:18.468Z,34.94
2023-05-21T10:55:12.596Z,33.98
2023-05-21T10:57:57.187Z,33.52
2023-05-21T11:00:25.827Z,35.36
2023-05-21T11:02:53.180Z,33.57
2023-05-21T11:05:56.132Z,35.85
2023-05-21T11:08:36.242Z,37.07
2023-05-21T11:11:03.920Z,35.72
2023-05-21T11:13:49.520Z,36.67
2023-05-21T11:16:17.118Z,35.98
2023-05-21T11:18:46.432Z,36.47
2023-05-21T11:21:18.099Z,37.39
2023-05-21T11:23:50.867Z,35.05
2023-05-21T11:26:18.022Z,36.13
2023-05-21T11:28:44.675Z,36.20
2023-05-21T11:31:25.828Z,35.88
2023-05-21T11:34:16.296Z,35.94
2023-05-21T11:36:47.763Z,34.79
2023-05-21T11:39:15.476Z,35.74
2023-05-21T11:42:04.714Z,36.00
2023-05-21T11:44:45.221Z,36.18
2023-05-21T11:47:15.075Z,35.89
2023-05-21T11:49:42.648Z,35.77
2023-05-21T11:52:11.122Z,35.43
2023-05-21T11:54:44.096Z,35.93
2023-05-21T11:57:11.102Z,35.52
2023-05-21T11:59:38.140Z,35.62
2023-05-21T12:02:05.341Z,35.21
2023-05-21T12:04:39.304Z,35.90
2023-05-21T12:07:09.602Z,37.16
2023-05-21T12:09:43.218Z,37.09
2023-05-21T12:12:11.428Z,36.51
2023-05-21T12:14:38.225Z,37.00
2023-05-21T12:17:05.896Z,37.35
2023-05-21T12:19:34.299Z,37.37
2023-05-21T12:22:05.495Z,38.94
2023-05-21T12:24:33.548Z,37.61
2023-05-21T12:27:02.235Z,39.23
2023-05-21T12:29:31.506Z,39.77
2023-05-21T12:32:03.248Z,39.60
2023-05-21T12:34:45.541Z,39.93
2023-05-21T12:37:16.274Z,40.51
2023-05-21T12:39:47.643Z,40.88
2023-05-21T12:42:14.746Z,40.76
2023-05-21T12:44:46.331Z,40.56
2023-05-21T12:47:14.057Z,41.17
2023-05-21T12:49:42.411Z,40.21
2023-05-21T12:52:13.258Z,40.22
2023-05-21T12:54:41.989Z,40.02
2023-05-21T12:57:19.605Z,38.89
2023-05-21T12:59:53.357Z,38.63
2023-05-21T13:02:25.212Z,39.30
2023-05-21T13:04:56.955Z,39.68
2023-05-21T13:07:24.902Z,40.01
2023-05-21T13:09:53.365Z,39.39
2023-05-21T13:12:30.769Z,39.83
2023-05-21T13:14:58.963Z,40.95
2023-05-21T13:17:27.693Z,41.51
2023-05-21T13:20:12.737Z,40.12
2023-05-21T13:22:48.343Z,39.58
2023-05-21T13:25:24.636Z,40.65
2023-05-21T13:27:52.850Z,39.77
2023-05-21T13:30:20.268Z,39.77
2023-05-21T13:32:48.022Z,39.17
2023-05-21T13:35:16.587Z,39.33
2023-05-21T13:37:43.624Z,39.61
2023-05-21T13:40:11.738Z,40.10
2023-05-21T13:42:38.885Z,40.34
2023-05-21T13:45:10.563Z,39.31
2023-05-21T13:47:40.259Z,39.19
2023-05-21T13:50:08.352Z,40.66
2023-05-21T13:52:35.123Z,42.45
2023-05-21T13:55:01.760Z,43.77
2023-05-21T13:57:30.801Z,43.61
2023-05-21T14:00:01.312Z,42.18
2023-05-21T14:02:28.393Z,40.83
2023-05-21T14:04:55.164Z,41.12
2023-05-21T14:07:22.313Z,42.11
2023-05-21T14:09:49.484Z,42.50
2023-05-21T14:12:17.020Z,42.41
2023-05-21T14:14:43.845Z,42.85
2023-05-21T14:17:10.517Z,41.54
2023-05-21T14:19:37.232Z,41.23
2023-05-21T14:22:03.943Z,41.65
2023-05-21T14:24:30.686Z,41.91
2023-05-21T14:26:57.405Z,41.57
2023-05-21T14:29:24.095Z,41.25
2023-05-21T14:31:50.832Z,40.09
2023-05-21T14:34:17.618Z,40.28
2023-05-21T14:36:44.277Z,40.31
2023-05-21T14:39:11.148Z,39.85
2023-05-21T14:41:39.829Z,40.47
2023-05-21T14:44:06.798Z,39.99
2023-05-21T14:46:33.668Z,39.74
2023-05-21T14:49:00.884Z,39.37
2023-05-21T14:51:27.640Z,39.85
2023-05-21T14:53:54.478Z,40.45
2023-05-21T14:56:22.110Z,39.47
2023-05-21T14:58:49.403Z,40.53
2023-05-21T15:01:16.353Z,40.41
2023-05-21T15:03:43.285Z,40.22
2023-05-21T15:06:10.076Z,40.13
2023-05-21T15:08:36.838Z,40.26
2023-05-21T15:11:03.531Z,39.73
2023-05-21T15:13:30.274Z,39.75
2023-05-21T15:15:57.183Z,40.62
2023-05-21T15:18:24.952Z,39.78
2023-05-21T15:20:51.900Z,40.24
2023-05-21T15:23:18.851Z,40.09
2023-05-21T15:25:46.076Z,40.85
2023-05-21T15:28:13.074Z,42.12
2023-05-21T15:30:40.207Z,40.90
2023-05-21T15:33:06.826Z,40.58
2023-05-21T15:35:35.389Z,40.66
2023-05-21T15:38:02.843Z,41.73
2023-05-21T15:40:29.583Z,41.95
2023-05-21T15:42:56.333Z,42.71
2023-05-21T15:45:24.833Z,41.93
2023-05-21T15:47:51.499Z,42.99
2023-05-21T15:50:18.315Z,43.89
2023-05-21T15:52:44.953Z,44.78
2023-05-21T15:55:11.648Z,44.92
2023-05-21T15:57:38.450Z,46.08
2023-05-21T16:00:06.378Z,45.87
2023-05-21T16:02:33.214Z,45.35
2023-05-21T16:04:59.890Z,45.33
2023-05-21T16:07:26.554Z,43.37
2023-05-21T16:09:53.239Z,42.68
2023-05-21T16:12:20.118Z,41.31
2023-05-21T16:14:50.157Z,41.01
2023-05-21T16:17:17.396Z,41.85
2023-05-21T16:19:44.020Z,41.74
2023-05-21T16:22:11.047Z,41.05
2023-05-21T16:24:37.992Z,41.33
2023-05-21T16:27:05.097Z,40.49
2023-05-21T16:29:31.958Z,41.37
2023-05-21T16:31:58.722Z,40.10
2023-05-21T16:34:25.750Z,39.66
2023-05-21T16:36:52.516Z,40.19
2023-05-21T16:39:19.241Z,40.21
2023-05-21T16:41:46.120Z,41.00
2023-05-21T16:44:12.896Z,40.17
2023-05-21T16:46:39.618Z,41.21
2023-05-21T16:49:06.426Z,41.28
2023-05-21T16:51:33.097Z,41.47
2023-05-21T16:53:59.835Z,40.30
2023-05-21T16:56:27.646Z,40.46
2023-05-21T16:58:54.419Z,40.70
2023-05-21T17:01:21.225Z,40.62
2023-05-21T17:03:47.981Z,40.64
2023-05-21T17:06:15.063Z,40.57
2023-05-21T17:08:42.754Z,40.35
2023-05-21T17:11:09.538Z,40.16
2023-05-21T17:13:36.338Z,40.30
2023-05-21T17:16:03.071Z,41.18
2023-05-21T17:18:30.037Z,41.55
2023-05-21T17:20:56.793Z,41.72
2023-05-21T17:23:23.667Z,41.98
2023-05-21T17:25:50.422Z,42.06
2023-05-21T17:28:17.184Z,42.10
2023-05-21T17:30:43.843Z,42.79
2023-05-21T17:33:10.819Z,41.43
2023-05-21T17:35:38.729Z,41.51
2023-05-21T17:38:05.979Z,41.96
2023-05-21T17:40:32.652Z,41.42
2023-05-21T17:42:59.339Z,42.36
2023-05-21T17:45:25.983Z,43.30
2023-05-21T17:47:52.819Z,42.77
2023-05-21T17:50:19.476Z,43.33
2023-05-21T17:52:46.274Z,43.19
2023-05-21T17:55:13.026Z,43.18
2023-05-21T17:57:39.699Z,43.49
2023-05-21T18:00:07.232Z,42.68
2023-05-21T18:02:33.957Z,43.45
2023-05-21T18:05:02.702Z,42.74
2023-05-21T18:07:29.329Z,43.33
2023-05-21T18:09:56.050Z,43.07
2023-05-21T18:12:22.687Z,43.23
2023-05-21T18:14:49.463Z,45.05
2023-05-21T18:17:16.074Z,43.87
2023-05-21T18:19:42.768Z,43.99
2023-05-21T18:22:09.507Z,45.19
2023-05-21T18:24:38.253Z,46.21
2023-05-21T18:27:05.287Z,45.72
2023-05-21T18:29:31.920Z,45.22
2023-05-21T18:31:58.740Z,45.29
2023-05-21T18:34:25.536Z,45.64
2023-05-21T18:36:54.582Z,45.74
2023-05-21T18:39:24.774Z,45.64
2023-05-21T18:41:58.646Z,45.69
2023-05-21T18:44:32.792Z,45.43
2023-05-21T18:46:59.517Z,45.70
2023-05-21T18:49:26.696Z,46.18
2023-05-21T18:51:53.625Z,46.04
2023-05-21T18:54:20.372Z,46.23
2023-05-21T18:56:47.044Z,48.00
2023-05-21T18:59:13.791Z,48.14
2023-05-21T19:01:40.627Z,48.76
2023-05-21T19:04:07.349Z,48.19
2023-05-21T19:06:34.045Z,50.02
2023-05-21T19:09:00.693Z,50.46
2023-05-21T19:11:31.107Z,49.72
2023-05-21T19:13:59.153Z,50.54
2023-05-21T19:16:25.955Z,49.68
2023-05-21T19:18:52.820Z,50.69
2023-05-21T19:21:19.706Z,50.73
2023-05-21T19:23:53.243Z,50.79
2023-05-21T19:26:22.691Z,49.81
2023-05-21T19:28:53.289Z,49.69
2023-05-21T19:31:22.431Z,48.92
2023-05-21T19:33:49.323Z,48.64
2023-05-21T19:36:16.147Z,49.66
2023-05-21T19:38:50.137Z,48.97
2023-05-21T19:41:17.931Z,49.27
2023-05-21T19:43:45.367Z,49.26
2023-05-21T19:46:12.075Z,48.89
2023-05-21T19:48:39.022Z,48.89
2023-05-21T19:51:05.913Z,49.04
2023-05-21T19:53:32.541Z,49.17
2023-05-21T19:55:59.267Z,49.45
2023-05-21T19:58:29.455Z,49.38
2023-05-21T20:00:58.420Z,49.14
2023-05-21T20:03:26.727Z,49.52
2023-05-21T20:05:53.764Z,49.29
2023-05-21T20:08:20.575Z,48.48
2023-05-21T20:10:49.618Z,50.69
2023-05-21T20:13:18.223Z,52.28
2023-05-21T20:15:44.977Z,52.36
2023-05-21T20:18:13.008Z,52.29
2023-05-21T20:20:41.137Z,52.72
2023-05-21T20:23:08.263Z,51.69
2023-05-21T20:25:34.903Z,51.06
2023-05-21T20:28:03.230Z,50.34
2023-05-21T20:30:34.429Z,50.77
2023-05-21T20:33:02.711Z,51.87
2023-05-21T20:35:30.152Z,51.55
2023-05-21T20:37:56.853Z,51.31
2023-05-21T20:40:23.641Z,52.14
2023-05-21T20:42:53.584Z,51.35
2023-05-21T20:45:21.204Z,51.28
2023-05-21T20:47:48.283Z,51.59
2023-05-21T20:50:17.687Z,51.89
2023-05-21T20:52:47.007Z,52.01
2023-05-21T20:55:14.775Z,51.75
2023-05-21T20:57:42.161Z,51.75
2023-05-21T21:00:11.965Z,52.18
2023-05-21T21:02:39.828Z,51.97
2023-05-21T21:05:10.629Z,52.50
2023-05-21T21:07:37.793Z,51.81
2023-05-21T21:10:05.254Z,51.61
2023-05-21T21:12:31.942Z,51.79
2023-05-21T21:14:58.677Z,51.91
2023-05-21T21:17:25.621Z,51.96
2023-05-21T21:19:52.407Z,51.95
2023-05-21T21:22:19.355Z,52.24
2023-05-21T21:24:46.042Z,52.19
2023-05-21T21:27:12.805Z,52.10
2023-05-21T21:29:39.839Z,52.47
2023-05-21T21:32:06.985Z,52.22
2023-05-21T21:34:33.767Z,52.07
2023-05-21T21:37:00.478Z,52.59
2023-05-21T21:39:27.229Z,52.61
2023-05-21T21:41:53.939Z,52.30
2023-05-21T21:44:20.685Z,52.76
2023-05-21T21:46:47.581Z,53.07
2023-05-21T21:49:17.266Z,52.99
2023-05-21T21:51:44.801Z,53.00
2023-05-21T21:54:11.970Z,53.00
2023-05-21T21:56:38.765Z,52.81
2023-05-21T21:59:05.726Z,53.08
2023-05-21T22:01:32.684Z,52.94
2023-05-21T22:03:59.826Z,52.93
2023-05-21T22:06:27.759Z,52.69
2023-05-21T22:08:54.976Z,53.01
2023-05-21T22:11:22.115Z,52.84
2023-05-21T22:13:49.139Z,52.62
2023-05-21T22:16:16.001Z,53.18
2023-05-21T22:18:42.725Z,53.43
2023-05-21T22:21:10.632Z,53.49
2023-05-21T22:23:38.612Z,53.48
2023-05-21T22:26:05.872Z,53.32
2023-05-21T22:28:32.768Z,53.37
2023-05-21T22:30:59.547Z,53.41
2023-05-21T22:33:26.815Z,53.12
2023-05-21T22:35:54.593Z,52.91
2023-05-21T22:38:21.585Z,53.76
2023-05-21T22:40:48.456Z,53.57
2023-05-21T22:43:15.208Z,53.92
2023-05-21T22:45:42.327Z,53.88
2023-05-21T22:48:09.823Z,54.07
2023-05-21T22:50:39.140Z,53.92
2023-05-21T22:53:06.953Z,54.05
2023-05-21T22:55:33.659Z,53.88
2023-05-21T22:58:00.577Z,53.69
2023-05-21T23:00:27.738Z,54.44
2023-05-21T23:02:54.903Z,54.77
2023-05-21T23:05:22.292Z,54.65
2023-05-21T23:07:49.162Z,54.63
2023-05-21T23:10:16.022Z,54.72
2023-05-21T23:12:42.762Z,54.62
2023-05-21T23:15:10.900Z,54.53
2023-05-21T23:17:38.496Z,55.27
2023-05-21T23:20:08.901Z,55.02
2023-05-21T23:22:35.774Z,55.72
2023-05-21T23:25:03.080Z,57.07
2023-05-21T23:27:29.816Z,57.40
2023-05-21T23:29:56.612Z,57.83
2023-05-21T23:32:23.799Z,57.16
2023-05-21T23:34:50.886Z,57.34
2023-05-21T23:37:17.894Z,57.13
2023-05-21T23:39:48.203Z,56.75
2023-05-21T23:42:16.181Z,57.94
2023-05-21T23:44:42.873Z,58.24
2023-05-21T23:47:09.942Z,58.05
2023-05-21T23:49:36.639Z,57.75
2023-05-21T23:52:03.568Z,59.04
2023-05-21T23:54:30.790Z,61.33
2023-05-21T23:56:57.530Z,61.53
2023-05-21T23:59:24.215Z,60.58
